sensor_id;sensor_type;location;lat;lon;timestamp;temperature;humidity
19088;DHT22;9676;50.916;13.352;2022-11-02T00:01:54;14.50;65.80
19088;DHT22;9676;50.916;13.352;2022-11-02T00:04:23;14.50;65.80
19088;DHT22;9676;50.916;13.352;2022-11-02T00:06:52;14.50;65.70
19088;DHT22;9676;50.916;13.352;2022-11-02T00:09:21;14.50;65.80
19088;DHT22;9676;50.916;13.352;2022-11-02T00:11:50;14.40;65.80
19088;DHT22;9676;50.916;13.352;2022-11-02T00:14:20;14.50;65.90
19088;DHT22;9676;50.916;13.352;2022-11-02T00:16:49;14.40;65.80
19088;DHT22;9676;50.916;13.352;2022-11-02T00:19:19;14.40;65.90
19088;DHT22;9676;50.916;13.352;2022-11-02T00:21:49;14.40;65.90
19088;DHT22;9676;50.916;13.352;2022-11-02T00:24:18;14.40;65.90
19088;DHT22;9676;50.916;13.352;2022-11-02T00:26:47;14.30;65.80
19088;DHT22;9676;50.916;13.352;2022-11-02T00:29:16;14.30;65.80
19088;DHT22;9676;50.916;13.352;2022-11-02T00:31:45;14.30;65.80
19088;DHT22;9676;50.916;13.352;2022-11-02T00:34:14;14.30;65.80
19088;DHT22;9676;50.916;13.352;2022-11-02T00:36:45;14.30;65.90
19088;DHT22;9676;50.916;13.352;2022-11-02T00:39:21;14.30;66.00
19088;DHT22;9676;50.916;13.352;2022-11-02T00:41:51;14.30;66.00
19088;DHT22;9676;50.916;13.352;2022-11-02T00:44:20;14.30;66.10
19088;DHT22;9676;50.916;13.352;2022-11-02T00:46:49;14.20;66.00
19088;DHT22;9676;50.916;13.352;2022-11-02T00:49:18;14.20;66.00
19088;DHT22;9676;50.916;13.352;2022-11-02T00:51:49;14.20;66.00
19088;DHT22;9676;50.916;13.352;2022-11-02T00:54:18;14.20;66.10
19088;DHT22;9676;50.916;13.352;2022-11-02T00:56:55;14.20;66.00
19088;DHT22;9676;50.916;13.352;2022-11-02T00:59:24;14.10;65.90
19088;DHT22;9676;50.916;13.352;2022-11-02T01:01:56;14.10;65.90
19088;DHT22;9676;50.916;13.352;2022-11-02T01:04:25;14.10;65.80
19088;DHT22;9676;50.916;13.352;2022-11-02T01:06:55;14.10;65.80
19088;DHT22;9676;50.916;13.352;2022-11-02T01:09:25;14.10;65.80
19088;DHT22;9676;50.916;13.352;2022-11-02T01:11:54;14.00;65.60
19088;DHT22;9676;50.916;13.352;2022-11-02T01:14:23;14.00;65.60
19088;DHT22;9676;50.916;13.352;2022-11-02T01:16:52;14.00;65.50
19088;DHT22;9676;50.916;13.352;2022-11-02T01:19:24;13.90;65.30
19088;DHT22;9676;50.916;13.352;2022-11-02T01:21:55;13.90;65.30
19088;DHT22;9676;50.916;13.352;2022-11-02T01:24:24;13.90;65.20
19088;DHT22;9676;50.916;13.352;2022-11-02T01:26:53;13.80;65.00
19088;DHT22;9676;50.916;13.352;2022-11-02T01:29:22;13.80;65.00
19088;DHT22;9676;50.916;13.352;2022-11-02T01:31:51;13.80;64.90
19088;DHT22;9676;50.916;13.352;2022-11-02T01:34:20;13.70;64.70
19088;DHT22;9676;50.916;13.352;2022-11-02T01:36:49;13.70;64.60
19088;DHT22;9676;50.916;13.352;2022-11-02T01:39:20;13.60;64.50
19088;DHT22;9676;50.916;13.352;2022-11-02T01:41:50;13.60;64.50
19088;DHT22;9676;50.916;13.352;2022-11-02T01:44:30;13.50;64.40
19088;DHT22;9676;50.916;13.352;2022-11-02T01:47:04;13.50;64.60
19088;DHT22;9676;50.916;13.352;2022-11-02T01:49:36;13.50;64.40
19088;DHT22;9676;50.916;13.352;2022-11-02T01:52:09;13.40;64.20
19088;DHT22;9676;50.916;13.352;2022-11-02T01:54:43;13.40;64.20
19088;DHT22;9676;50.916;13.352;2022-11-02T01:57:17;13.30;64.10
19088;DHT22;9676;50.916;13.352;2022-11-02T01:59:50;13.30;64.10
19088;DHT22;9676;50.916;13.352;2022-11-02T02:02:26;13.20;64.00
19088;DHT22;9676;50.916;13.352;2022-11-02T02:05:04;13.20;63.90
19088;DHT22;9676;50.916;13.352;2022-11-02T02:07:37;13.10;63.90
19088;DHT22;9676;50.916;13.352;2022-11-02T02:10:08;13.10;63.90
19088;DHT22;9676;50.916;13.352;2022-11-02T02:12:39;13.00;63.70
19088;DHT22;9676;50.916;13.352;2022-11-02T02:15:10;13.00;63.70
19088;DHT22;9676;50.916;13.352;2022-11-02T02:17:47;13.00;63.70
19088;DHT22;9676;50.916;13.352;2022-11-02T02:20:33;12.90;63.70
19088;DHT22;9676;50.916;13.352;2022-11-02T02:23:36;12.90;63.80
19088;DHT22;9676;50.916;13.352;2022-11-02T02:26:57;12.90;64.00
19088;DHT22;9676;50.916;13.352;2022-11-02T02:29:37;12.80;63.80
19088;DHT22;9676;50.916;13.352;2022-11-02T02:32:17;12.80;63.60
19088;DHT22;9676;50.916;13.352;2022-11-02T02:34:53;12.80;63.60
19088;DHT22;9676;50.916;13.352;2022-11-02T02:37:30;12.70;63.60
19088;DHT22;9676;50.916;13.352;2022-11-02T02:40:05;12.70;63.70
19088;DHT22;9676;50.916;13.352;2022-11-02T02:42:43;12.60;63.60
19088;DHT22;9676;50.916;13.352;2022-11-02T02:45:19;12.70;63.70
19088;DHT22;9676;50.916;13.352;2022-11-02T02:47:54;12.60;63.70
19088;DHT22;9676;50.916;13.352;2022-11-02T02:50:31;12.60;63.70
19088;DHT22;9676;50.916;13.352;2022-11-02T02:53:05;12.60;63.70
19088;DHT22;9676;50.916;13.352;2022-11-02T02:55:38;12.60;63.60
19088;DHT22;9676;50.916;13.352;2022-11-02T02:58:14;12.50;63.40
19088;DHT22;9676;50.916;13.352;2022-11-02T03:00:47;12.50;63.40
19088;DHT22;9676;50.916;13.352;2022-11-02T03:03:24;12.50;63.30
19088;DHT22;9676;50.916;13.352;2022-11-02T03:06:04;12.50;63.30
19088;DHT22;9676;50.916;13.352;2022-11-02T03:08:49;12.40;63.30
19088;DHT22;9676;50.916;13.352;2022-11-02T03:11:26;12.40;63.20
19088;DHT22;9676;50.916;13.352;2022-11-02T03:14:07;12.40;63.10
19088;DHT22;9676;50.916;13.352;2022-11-02T03:17:02;12.30;63.30
19088;DHT22;9676;50.916;13.352;2022-11-02T03:19:43;12.30;63.30
19088;DHT22;9676;50.916;13.352;2022-11-02T03:22:25;12.30;63.20
19088;DHT22;9676;50.916;13.352;2022-11-02T03:25:04;12.30;63.20
19088;DHT22;9676;50.916;13.352;2022-11-02T03:27:40;12.20;63.10
19088;DHT22;9676;50.916;13.352;2022-11-02T03:30:17;12.20;63.20
19088;DHT22;9676;50.916;13.352;2022-11-02T03:32:51;12.20;63.20
19088;DHT22;9676;50.916;13.352;2022-11-02T03:35:31;12.10;63.10
19088;DHT22;9676;50.916;13.352;2022-11-02T03:38:06;12.20;63.30
19088;DHT22;9676;50.916;13.352;2022-11-02T03:40:43;12.10;63.10
19088;DHT22;9676;50.916;13.352;2022-11-02T03:43:16;12.10;63.20
19088;DHT22;9676;50.916;13.352;2022-11-02T03:45:49;12.10;63.20
19088;DHT22;9676;50.916;13.352;2022-11-02T03:48:24;12.00;63.20
19088;DHT22;9676;50.916;13.352;2022-11-02T03:51:01;12.00;63.30
19088;DHT22;9676;50.916;13.352;2022-11-02T03:53:39;12.00;63.40
19088;DHT22;9676;50.916;13.352;2022-11-02T03:56:15;12.00;63.60
19088;DHT22;9676;50.916;13.352;2022-11-02T03:58:47;11.90;63.70
19088;DHT22;9676;50.916;13.352;2022-11-02T04:01:18;11.90;63.70
19088;DHT22;9676;50.916;13.352;2022-11-02T04:03:50;12.00;64.20
19088;DHT22;9676;50.916;13.352;2022-11-02T04:06:19;12.00;64.60
19088;DHT22;9676;50.916;13.352;2022-11-02T04:08:50;12.00;64.90
19088;DHT22;9676;50.916;13.352;2022-11-02T04:11:20;12.00;65.20
19088;DHT22;9676;50.916;13.352;2022-11-02T04:14:10;12.10;65.60
19088;DHT22;9676;50.916;13.352;2022-11-02T04:16:58;12.10;65.70
19088;DHT22;9676;50.916;13.352;2022-11-02T04:19:48;12.20;65.80
19088;DHT22;9676;50.916;13.352;2022-11-02T04:22:19;12.30;65.90
19088;DHT22;9676;50.916;13.352;2022-11-02T04:25:14;12.30;66.00
19088;DHT22;9676;50.916;13.352;2022-11-02T04:28:08;12.40;66.10
19088;DHT22;9676;50.916;13.352;2022-11-02T04:30:43;12.40;66.00
19088;DHT22;9676;50.916;13.352;2022-11-02T04:33:14;12.50;66.10
19088;DHT22;9676;50.916;13.352;2022-11-02T04:36:09;12.50;66.10
19088;DHT22;9676;50.916;13.352;2022-11-02T04:38:40;12.60;66.10
19088;DHT22;9676;50.916;13.352;2022-11-02T04:41:27;12.60;66.10
19088;DHT22;9676;50.916;13.352;2022-11-02T04:44:34;12.60;65.90
19088;DHT22;9676;50.916;13.352;2022-11-02T04:47:09;12.60;65.90
19088;DHT22;9676;50.916;13.352;2022-11-02T04:49:38;12.70;65.90
19088;DHT22;9676;50.916;13.352;2022-11-02T04:52:13;12.70;65.90
19088;DHT22;9676;50.916;13.352;2022-11-02T04:54:48;12.70;66.00
19088;DHT22;9676;50.916;13.352;2022-11-02T04:57:18;12.70;66.00
19088;DHT22;9676;50.916;13.352;2022-11-02T04:59:47;12.70;66.10
19088;DHT22;9676;50.916;13.352;2022-11-02T05:02:17;12.80;66.20
19088;DHT22;9676;50.916;13.352;2022-11-02T05:04:47;12.80;66.20
19088;DHT22;9676;50.916;13.352;2022-11-02T05:07:18;12.80;66.20
19088;DHT22;9676;50.916;13.352;2022-11-02T05:09:48;12.80;66.30
19088;DHT22;9676;50.916;13.352;2022-11-02T05:12:17;12.90;66.30
19088;DHT22;9676;50.916;13.352;2022-11-02T05:14:48;12.90;66.20
19088;DHT22;9676;50.916;13.352;2022-11-02T05:17:17;12.90;66.30
19088;DHT22;9676;50.916;13.352;2022-11-02T05:19:47;12.90;66.20
19088;DHT22;9676;50.916;13.352;2022-11-02T05:22:19;12.90;66.10
19088;DHT22;9676;50.916;13.352;2022-11-02T05:24:49;12.90;66.10
19088;DHT22;9676;50.916;13.352;2022-11-02T05:27:18;13.00;66.20
19088;DHT22;9676;50.916;13.352;2022-11-02T05:29:48;12.90;66.10
19088;DHT22;9676;50.916;13.352;2022-11-02T05:32:17;12.90;66.10
19088;DHT22;9676;50.916;13.352;2022-11-02T05:34:47;12.90;66.20
19088;DHT22;9676;50.916;13.352;2022-11-02T05:37:16;12.90;66.20
19088;DHT22;9676;50.916;13.352;2022-11-02T05:39:47;13.00;66.40
19088;DHT22;9676;50.916;13.352;2022-11-02T05:42:17;13.00;66.40
19088;DHT22;9676;50.916;13.352;2022-11-02T05:44:47;13.00;66.40
19088;DHT22;9676;50.916;13.352;2022-11-02T05:47:16;13.00;66.40
19088;DHT22;9676;50.916;13.352;2022-11-02T05:49:45;12.90;66.30
19088;DHT22;9676;50.916;13.352;2022-11-02T05:52:14;12.90;66.40
19088;DHT22;9676;50.916;13.352;2022-11-02T05:54:43;13.00;66.50
19088;DHT22;9676;50.916;13.352;2022-11-02T05:57:14;13.00;66.50
19088;DHT22;9676;50.916;13.352;2022-11-02T05:59:45;13.00;66.70
19088;DHT22;9676;50.916;13.352;2022-11-02T06:02:16;13.00;66.70
19088;DHT22;9676;50.916;13.352;2022-11-02T06:04:50;13.00;66.70
19088;DHT22;9676;50.916;13.352;2022-11-02T06:07:19;13.00;66.70
19088;DHT22;9676;50.916;13.352;2022-11-02T06:09:48;13.00;66.80
19088;DHT22;9676;50.916;13.352;2022-11-02T06:12:19;13.00;66.90
19088;DHT22;9676;50.916;13.352;2022-11-02T06:14:48;13.10;67.10
19088;DHT22;9676;50.916;13.352;2022-11-02T06:17:17;13.10;67.20
19088;DHT22;9676;50.916;13.352;2022-11-02T06:19:47;13.10;67.40
19088;DHT22;9676;50.916;13.352;2022-11-02T06:22:16;13.10;67.60
19088;DHT22;9676;50.916;13.352;2022-11-02T06:24:45;13.10;67.90
19088;DHT22;9676;50.916;13.352;2022-11-02T06:27:14;13.20;68.20
19088;DHT22;9676;50.916;13.352;2022-11-02T06:29:44;13.30;68.50
19088;DHT22;9676;50.916;13.352;2022-11-02T06:32:13;13.30;68.70
19088;DHT22;9676;50.916;13.352;2022-11-02T06:34:42;13.40;68.80
19088;DHT22;9676;50.916;13.352;2022-11-02T06:37:12;13.50;69.10
19088;DHT22;9676;50.916;13.352;2022-11-02T06:39:41;13.60;69.70
19088;DHT22;9676;50.916;13.352;2022-11-02T06:42:10;13.70;70.10
19088;DHT22;9676;50.916;13.352;2022-11-02T06:44:39;13.90;70.60
19088;DHT22;9676;50.916;13.352;2022-11-02T06:47:09;14.00;70.80
19088;DHT22;9676;50.916;13.352;2022-11-02T06:49:39;14.20;70.70
19088;DHT22;9676;50.916;13.352;2022-11-02T06:52:08;14.30;70.30
19088;DHT22;9676;50.916;13.352;2022-11-02T06:54:37;14.40;69.70
19088;DHT22;9676;50.916;13.352;2022-11-02T06:57:06;14.50;69.20
19088;DHT22;9676;50.916;13.352;2022-11-02T06:59:36;14.60;68.70
19088;DHT22;9676;50.916;13.352;2022-11-02T07:02:05;14.60;68.20
19088;DHT22;9676;50.916;13.352;2022-11-02T07:04:35;14.60;67.80
19088;DHT22;9676;50.916;13.352;2022-11-02T07:07:05;14.60;67.60
19088;DHT22;9676;50.916;13.352;2022-11-02T07:09:34;14.60;67.40
19088;DHT22;9676;50.916;13.352;2022-11-02T07:12:04;14.60;67.40
19088;DHT22;9676;50.916;13.352;2022-11-02T07:14:34;14.60;67.50
19088;DHT22;9676;50.916;13.352;2022-11-02T07:17:03;14.60;67.60
19088;DHT22;9676;50.916;13.352;2022-11-02T07:19:32;14.60;67.90
19088;DHT22;9676;50.916;13.352;2022-11-02T07:22:03;14.60;68.50
19088;DHT22;9676;50.916;13.352;2022-11-02T07:24:32;14.70;69.90
19088;DHT22;9676;50.916;13.352;2022-11-02T07:27:01;14.70;69.70
19088;DHT22;9676;50.916;13.352;2022-11-02T07:29:30;14.80;70.40
19088;DHT22;9676;50.916;13.352;2022-11-02T07:31:59;15.00;71.40
19088;DHT22;9676;50.916;13.352;2022-11-02T07:34:29;15.20;72.50
19088;DHT22;9676;50.916;13.352;2022-11-02T07:36:58;15.40;73.00
19088;DHT22;9676;50.916;13.352;2022-11-02T07:39:29;15.70;73.70
19088;DHT22;9676;50.916;13.352;2022-11-02T07:41:58;16.00;74.30
19088;DHT22;9676;50.916;13.352;2022-11-02T07:44:27;16.30;75.30
19088;DHT22;9676;50.916;13.352;2022-11-02T07:46:57;16.60;76.20
19088;DHT22;9676;50.916;13.352;2022-11-02T07:49:26;17.00;77.10
19088;DHT22;9676;50.916;13.352;2022-11-02T07:51:55;17.50;77.90
19088;DHT22;9676;50.916;13.352;2022-11-02T07:54:25;17.90;78.30
19088;DHT22;9676;50.916;13.352;2022-11-02T07:56:55;18.40;78.50
19088;DHT22;9676;50.916;13.352;2022-11-02T07:59:25;18.80;78.20
19088;DHT22;9676;50.916;13.352;2022-11-02T08:01:54;19.30;78.20
19088;DHT22;9676;50.916;13.352;2022-11-02T08:04:23;19.80;78.00
19088;DHT22;9676;50.916;13.352;2022-11-02T08:06:52;20.20;77.60
19088;DHT22;9676;50.916;13.352;2022-11-02T08:09:22;20.70;77.00
19088;DHT22;9676;50.916;13.352;2022-11-02T08:11:51;21.10;75.90
19088;DHT22;9676;50.916;13.352;2022-11-02T08:14:21;21.50;75.00
19088;DHT22;9676;50.916;13.352;2022-11-02T08:16:51;21.80;73.90
19088;DHT22;9676;50.916;13.352;2022-11-02T08:19:20;22.20;73.20
19088;DHT22;9676;50.916;13.352;2022-11-02T08:21:49;22.40;72.40
19088;DHT22;9676;50.916;13.352;2022-11-02T08:24:19;22.70;71.80
19088;DHT22;9676;50.916;13.352;2022-11-02T08:26:48;22.90;72.10
19088;DHT22;9676;50.916;13.352;2022-11-02T08:29:23;23.20;71.30
19088;DHT22;9676;50.916;13.352;2022-11-02T08:31:52;23.40;71.10
19088;DHT22;9676;50.916;13.352;2022-11-02T08:34:21;23.70;71.10
19088;DHT22;9676;50.916;13.352;2022-11-02T08:36:50;23.90;70.90
19088;DHT22;9676;50.916;13.352;2022-11-02T08:39:19;24.20;71.00
19088;DHT22;9676;50.916;13.352;2022-11-02T08:41:48;24.50;71.50
19088;DHT22;9676;50.916;13.352;2022-11-02T08:44:18;24.80;70.50
19088;DHT22;9676;50.916;13.352;2022-11-02T08:46:49;25.10;70.00
19088;DHT22;9676;50.916;13.352;2022-11-02T08:49:18;25.30;69.10
19088;DHT22;9676;50.916;13.352;2022-11-02T08:51:48;25.60;69.20
19088;DHT22;9676;50.916;13.352;2022-11-02T08:54:17;25.90;69.00
19088;DHT22;9676;50.916;13.352;2022-11-02T08:56:46;26.20;68.80
19088;DHT22;9676;50.916;13.352;2022-11-02T08:59:15;26.40;68.30
19088;DHT22;9676;50.916;13.352;2022-11-02T09:01:44;26.70;68.00
19088;DHT22;9676;50.916;13.352;2022-11-02T09:04:15;27.00;67.60
19088;DHT22;9676;50.916;13.352;2022-11-02T09:06:44;27.20;67.00
19088;DHT22;9676;50.916;13.352;2022-11-02T09:09:13;27.40;66.60
19088;DHT22;9676;50.916;13.352;2022-11-02T09:11:42;27.60;66.20
19088;DHT22;9676;50.916;13.352;2022-11-02T09:14:11;27.80;65.40
19088;DHT22;9676;50.916;13.352;2022-11-02T09:16:41;27.90;63.90
19088;DHT22;9676;50.916;13.352;2022-11-02T09:19:11;27.90;62.90
19088;DHT22;9676;50.916;13.352;2022-11-02T09:21:41;27.90;62.50
19088;DHT22;9676;50.916;13.352;2022-11-02T09:24:11;27.90;61.40
19088;DHT22;9676;50.916;13.352;2022-11-02T09:26:40;27.80;60.50
19088;DHT22;9676;50.916;13.352;2022-11-02T09:29:09;27.60;59.70
19088;DHT22;9676;50.916;13.352;2022-11-02T09:31:39;27.40;59.00
19088;DHT22;9676;50.916;13.352;2022-11-02T09:34:08;27.20;58.50
19088;DHT22;9676;50.916;13.352;2022-11-02T09:36:37;26.90;57.90
19088;DHT22;9676;50.916;13.352;2022-11-02T09:39:08;26.60;57.40
19088;DHT22;9676;50.916;13.352;2022-11-02T09:41:41;26.20;56.80
19088;DHT22;9676;50.916;13.352;2022-11-02T09:44:18;25.80;56.30
19088;DHT22;9676;50.916;13.352;2022-11-02T09:46:55;25.50;56.10
19088;DHT22;9676;50.916;13.352;2022-11-02T09:49:44;25.10;56.00
19088;DHT22;9676;50.916;13.352;2022-11-02T09:52:20;24.60;55.80
19088;DHT22;9676;50.916;13.352;2022-11-02T09:54:55;24.20;56.00
19088;DHT22;9676;50.916;13.352;2022-11-02T09:57:27;23.90;55.60
19088;DHT22;9676;50.916;13.352;2022-11-02T09:59:59;23.50;55.60
19088;DHT22;9676;50.916;13.352;2022-11-02T10:02:56;23.20;55.90
19088;DHT22;9676;50.916;13.352;2022-11-02T10:05:37;22.90;55.90
19088;DHT22;9676;50.916;13.352;2022-11-02T10:08:18;22.60;55.80
19088;DHT22;9676;50.916;13.352;2022-11-02T10:11:04;22.40;56.00
19088;DHT22;9676;50.916;13.352;2022-11-02T10:13:42;22.20;56.10
19088;DHT22;9676;50.916;13.352;2022-11-02T10:16:23;22.00;56.30
19088;DHT22;9676;50.916;13.352;2022-11-02T10:18:53;21.80;57.20
19088;DHT22;9676;50.916;13.352;2022-11-02T10:21:26;21.80;57.30
19088;DHT22;9676;50.916;13.352;2022-11-02T10:24:00;21.70;58.10
19088;DHT22;9676;50.916;13.352;2022-11-02T10:26:36;21.80;59.70
19088;DHT22;9676;50.916;13.352;2022-11-02T10:29:14;22.00;61.00
19088;DHT22;9676;50.916;13.352;2022-11-02T10:31:45;22.40;61.80
19088;DHT22;9676;50.916;13.352;2022-11-02T10:34:23;22.80;62.80
19088;DHT22;9676;50.916;13.352;2022-11-02T10:37:04;23.30;62.40
19088;DHT22;9676;50.916;13.352;2022-11-02T10:39:43;23.70;61.80
19088;DHT22;9676;50.916;13.352;2022-11-02T10:42:33;24.00;61.20
19088;DHT22;9676;50.916;13.352;2022-11-02T10:48:33;24.40;58.20
19088;DHT22;9676;50.916;13.352;2022-11-02T10:51:08;24.40;58.70
19088;DHT22;9676;50.916;13.352;2022-11-02T10:53:40;24.40;59.10
19088;DHT22;9676;50.916;13.352;2022-11-02T10:56:15;24.40;59.00
19088;DHT22;9676;50.916;13.352;2022-11-02T10:58:54;24.40;58.10
19088;DHT22;9676;50.916;13.352;2022-11-02T11:01:29;24.40;57.50
19088;DHT22;9676;50.916;13.352;2022-11-02T11:04:00;24.30;57.60
19088;DHT22;9676;50.916;13.352;2022-11-02T11:06:34;24.20;57.90
19088;DHT22;9676;50.916;13.352;2022-11-02T11:09:06;24.20;57.40
19088;DHT22;9676;50.916;13.352;2022-11-02T11:11:52;24.20;57.00
19088;DHT22;9676;50.916;13.352;2022-11-02T11:14:25;24.10;56.40
19088;DHT22;9676;50.916;13.352;2022-11-02T11:17:17;24.00;56.80
19088;DHT22;9676;50.916;13.352;2022-11-02T11:20:30;24.00;57.40
19088;DHT22;9676;50.916;13.352;2022-11-02T11:23:22;23.90;56.50
19088;DHT22;9676;50.916;13.352;2022-11-02T11:25:56;23.90;56.10
19088;DHT22;9676;50.916;13.352;2022-11-02T11:28:29;23.80;56.20
19088;DHT22;9676;50.916;13.352;2022-11-02T11:31:07;23.70;55.60
19088;DHT22;9676;50.916;13.352;2022-11-02T11:33:50;23.60;55.10
19088;DHT22;9676;50.916;13.352;2022-11-02T11:36:27;23.40;54.70
19088;DHT22;9676;50.916;13.352;2022-11-02T11:38:59;23.20;54.40
19088;DHT22;9676;50.916;13.352;2022-11-02T11:41:30;22.90;54.20
19088;DHT22;9676;50.916;13.352;2022-11-02T11:44:02;22.70;53.90
19088;DHT22;9676;50.916;13.352;2022-11-02T11:46:41;22.40;53.60
19088;DHT22;9676;50.916;13.352;2022-11-02T11:49:24;22.10;53.20
19088;DHT22;9676;50.916;13.352;2022-11-02T11:52:19;21.90;53.30
19088;DHT22;9676;50.916;13.352;2022-11-02T11:54:58;21.60;53.40
19088;DHT22;9676;50.916;13.352;2022-11-02T11:57:30;21.40;53.60
19088;DHT22;9676;50.916;13.352;2022-11-02T12:00:01;21.20;53.70
19088;DHT22;9676;50.916;13.352;2022-11-02T12:03:03;21.00;53.80
19088;DHT22;9676;50.916;13.352;2022-11-02T12:05:42;20.90;53.80
19088;DHT22;9676;50.916;13.352;2022-11-02T12:11:26;20.70;54.20
19088;DHT22;9676;50.916;13.352;2022-11-02T12:14:15;20.70;54.30
19088;DHT22;9676;50.916;13.352;2022-11-02T12:17:13;20.60;54.20
19088;DHT22;9676;50.916;13.352;2022-11-02T12:20:12;20.50;54.00
19088;DHT22;9676;50.916;13.352;2022-11-02T12:22:52;20.50;53.90
19088;DHT22;9676;50.916;13.352;2022-11-02T12:25:31;20.40;53.80
19088;DHT22;9676;50.916;13.352;2022-11-02T12:28:19;20.20;53.60
19088;DHT22;9676;50.916;13.352;2022-11-02T12:31:01;20.20;53.60
19088;DHT22;9676;50.916;13.352;2022-11-02T12:33:47;20.00;53.40
19088;DHT22;9676;50.916;13.352;2022-11-02T12:36:38;19.90;53.30
19088;DHT22;9676;50.916;13.352;2022-11-02T12:39:43;19.70;53.20
19088;DHT22;9676;50.916;13.352;2022-11-02T12:42:26;19.70;53.50
19088;DHT22;9676;50.916;13.352;2022-11-02T12:45:19;19.50;53.60
19088;DHT22;9676;50.916;13.352;2022-11-02T12:47:57;19.50;53.70
19088;DHT22;9676;50.916;13.352;2022-11-02T12:50:36;19.50;53.90
19088;DHT22;9676;50.916;13.352;2022-11-02T12:53:33;19.40;54.10
19088;DHT22;9676;50.916;13.352;2022-11-02T12:56:12;19.50;54.20
19088;DHT22;9676;50.916;13.352;2022-11-02T12:58:46;19.50;54.10
19088;DHT22;9676;50.916;13.352;2022-11-02T13:01:21;19.50;54.00
19088;DHT22;9676;50.916;13.352;2022-11-02T13:03:58;19.50;53.90
19088;DHT22;9676;50.916;13.352;2022-11-02T13:06:35;19.40;53.70
19088;DHT22;9676;50.916;13.352;2022-11-02T13:09:11;19.40;53.60
19088;DHT22;9676;50.916;13.352;2022-11-02T13:11:46;19.30;53.60
19088;DHT22;9676;50.916;13.352;2022-11-02T13:14:19;19.20;53.70
19088;DHT22;9676;50.916;13.352;2022-11-02T13:16:56;19.20;53.80
19088;DHT22;9676;50.916;13.352;2022-11-02T13:19:32;19.20;53.90
19088;DHT22;9676;50.916;13.352;2022-11-02T13:22:03;19.20;54.00
19088;DHT22;9676;50.916;13.352;2022-11-02T13:24:39;19.10;53.80
19088;DHT22;9676;50.916;13.352;2022-11-02T13:27:24;19.10;53.70
19088;DHT22;9676;50.916;13.352;2022-11-02T13:30:12;19.10;53.70
19088;DHT22;9676;50.916;13.352;2022-11-02T13:32:44;19.00;53.60
19088;DHT22;9676;50.916;13.352;2022-11-02T13:35:21;19.00;53.70
19088;DHT22;9676;50.916;13.352;2022-11-02T13:37:56;18.90;53.60
19088;DHT22;9676;50.916;13.352;2022-11-02T13:40:35;18.90;53.70
19088;DHT22;9676;50.916;13.352;2022-11-02T13:43:43;18.80;53.60
19088;DHT22;9676;50.916;13.352;2022-11-02T13:46:33;18.80;53.40
19088;DHT22;9676;50.916;13.352;2022-11-02T13:49:25;18.70;53.30
19088;DHT22;9676;50.916;13.352;2022-11-02T13:51:59;18.70;53.30
19088;DHT22;9676;50.916;13.352;2022-11-02T13:54:33;18.60;53.20
19088;DHT22;9676;50.916;13.352;2022-11-02T13:57:20;18.50;53.00
19088;DHT22;9676;50.916;13.352;2022-11-02T13:59:59;18.40;52.80
19088;DHT22;9676;50.916;13.352;2022-11-02T14:02:51;18.40;53.00
19088;DHT22;9676;50.916;13.352;2022-11-02T14:05:26;18.30;52.90
19088;DHT22;9676;50.916;13.352;2022-11-02T14:07:59;18.20;52.80
19088;DHT22;9676;50.916;13.352;2022-11-02T14:10:35;18.10;52.80
19088;DHT22;9676;50.916;13.352;2022-11-02T14:13:11;18.00;52.70
19088;DHT22;9676;50.916;13.352;2022-11-02T14:15:41;18.00;52.80
19088;DHT22;9676;50.916;13.352;2022-11-02T14:18:28;17.90;52.80
19088;DHT22;9676;50.916;13.352;2022-11-02T14:20:58;17.80;52.80
19088;DHT22;9676;50.916;13.352;2022-11-02T14:27:43;17.70;52.70
19088;DHT22;9676;50.916;13.352;2022-11-02T14:30:40;17.70;52.80
19088;DHT22;9676;50.916;13.352;2022-11-02T14:33:35;17.60;52.70
19088;DHT22;9676;50.916;13.352;2022-11-02T14:36:25;17.60;52.70
19088;DHT22;9676;50.916;13.352;2022-11-02T14:39:09;17.50;52.60
19088;DHT22;9676;50.916;13.352;2022-11-02T14:42:02;17.50;52.70
19088;DHT22;9676;50.916;13.352;2022-11-02T14:44:58;17.40;52.60
19088;DHT22;9676;50.916;13.352;2022-11-02T14:47:36;17.40;52.60
19088;DHT22;9676;50.916;13.352;2022-11-02T14:50:13;17.30;52.60
19088;DHT22;9676;50.916;13.352;2022-11-02T14:52:55;17.30;52.70
19088;DHT22;9676;50.916;13.352;2022-11-02T14:55:28;17.20;52.60
19088;DHT22;9676;50.916;13.352;2022-11-02T14:57:59;17.20;52.70
19088;DHT22;9676;50.916;13.352;2022-11-02T15:00:52;17.10;52.70
19088;DHT22;9676;50.916;13.352;2022-11-02T15:03:32;17.10;52.70
19088;DHT22;9676;50.916;13.352;2022-11-02T15:06:05;17.00;52.60
19088;DHT22;9676;50.916;13.352;2022-11-02T15:08:49;17.00;52.60
19088;DHT22;9676;50.916;13.352;2022-11-02T15:11:42;16.90;52.50
19088;DHT22;9676;50.916;13.352;2022-11-02T15:17:51;16.80;52.50
19088;DHT22;9676;50.916;13.352;2022-11-02T15:20:28;16.70;52.50
19088;DHT22;9676;50.916;13.352;2022-11-02T15:25:59;16.60;52.40
19088;DHT22;9676;50.916;13.352;2022-11-02T15:28:33;16.60;52.40
19088;DHT22;9676;50.916;13.352;2022-11-02T15:31:05;16.50;52.40
19088;DHT22;9676;50.916;13.352;2022-11-02T15:33:37;16.40;52.30
19088;DHT22;9676;50.916;13.352;2022-11-02T15:36:15;16.40;52.40
19088;DHT22;9676;50.916;13.352;2022-11-02T15:38:47;16.30;52.30
19088;DHT22;9676;50.916;13.352;2022-11-02T15:41:24;16.30;52.30
19088;DHT22;9676;50.916;13.352;2022-11-02T15:47:18;16.10;52.40
19088;DHT22;9676;50.916;13.352;2022-11-02T15:50:02;16.00;52.20
19088;DHT22;9676;50.916;13.352;2022-11-02T15:52:52;16.00;52.30
19088;DHT22;9676;50.916;13.352;2022-11-02T15:55:59;15.90;52.30
19088;DHT22;9676;50.916;13.352;2022-11-02T15:58:41;15.80;52.20
19088;DHT22;9676;50.916;13.352;2022-11-02T16:01:20;15.80;52.20
19088;DHT22;9676;50.916;13.352;2022-11-02T16:03:53;15.70;52.10
19088;DHT22;9676;50.916;13.352;2022-11-02T16:06:27;15.60;52.10
19088;DHT22;9676;50.916;13.352;2022-11-02T16:09:01;15.50;52.10
19088;DHT22;9676;50.916;13.352;2022-11-02T16:11:31;15.50;52.20
19088;DHT22;9676;50.916;13.352;2022-11-02T16:14:14;15.40;52.20
19088;DHT22;9676;50.916;13.352;2022-11-02T16:16:48;15.40;52.40
19088;DHT22;9676;50.916;13.352;2022-11-02T16:19:19;15.30;52.30
19088;DHT22;9676;50.916;13.352;2022-11-02T16:21:49;15.20;52.30
19088;DHT22;9676;50.916;13.352;2022-11-02T16:24:26;15.20;52.40
19088;DHT22;9676;50.916;13.352;2022-11-02T16:26:55;15.10;52.40
19088;DHT22;9676;50.916;13.352;2022-11-02T16:29:28;15.10;52.40
19088;DHT22;9676;50.916;13.352;2022-11-02T16:31:59;15.10;52.60
19088;DHT22;9676;50.916;13.352;2022-11-02T16:34:30;15.00;52.60
19088;DHT22;9676;50.916;13.352;2022-11-02T16:37:01;15.00;52.60
19088;DHT22;9676;50.916;13.352;2022-11-02T16:39:39;15.00;52.70
19088;DHT22;9676;50.916;13.352;2022-11-02T16:42:16;14.90;52.60